Time;durP1;ratioP1;P1;durP2;ratioP2;P2;SDS_P1;SDS_P2;PMS_P1;PMS_P2;Temp;Humidity;BMP_temperature;BMP_pressure;BME280_temperature;BME280_humidity;BME280_pressure;Samples;Min_cycle;Max_cycle;Signal;HPM_P1;HPM_P2
2022/01/16 00:00:19;;;;;;;;;;;21.10;43.60;;;;;;685041;28;1321;-89
2022/01/16 00:00:54;;;;;;;;;;;21.10;43.70;;;;;;686819;28;1314;-88
2022/01/16 00:04:06;;;;;;;;;;;21.10;43.70;;;;;;686354;28;630;-87
2022/01/16 00:04:27;;;;;;;;;;;21.10;43.80;;;;;;686174;28;934;-90
2022/01/16 00:04:48;;;;;;;;;;;21.20;44.00;;;;;;686242;28;969;-88
2022/01/16 00:05:08;;;;;;;;;;;21.10;44.10;;;;;;686318;28;1168;-86
2022/01/16 00:05:30;;;;;;;;;;;21.10;44.10;;;;;;686210;28;811;-92
2022/01/16 00:05:50;;;;;;;;;;;21.10;44.20;;;;;;686292;28;795;-88
2022/01/16 00:06:13;;;;;;;;;;;21.10;44.40;;;;;;686259;28;784;-84
2022/01/16 00:06:33;;;;;;;;;;;21.20;44.30;;;;;;686094;28;890;-87
2022/01/16 00:06:54;;;;;;;;;;;21.20;44.50;;;;;;686095;28;1140;-90
2022/01/16 00:07:15;;;;;;;;;;;21.20;44.50;;;;;;688420;28;1441;-89
2022/01/16 00:07:35;;;;;;;;;;;21.10;44.20;;;;;;687910;28;1330;-91
2022/01/16 00:07:57;;;;;;;;;;;21.10;44.20;;;;;;688673;28;1516;-85
2022/01/16 00:08:18;;;;;;;;;;;21.10;44.30;;;;;;688447;28;1257;-91
2022/01/16 00:08:42;;;;;;;;;;;21.20;44.20;;;;;;683971;28;1350;-80
2022/01/16 00:09:05;;;;;;;;;;;21.20;44.10;;;;;;683706;29;1224;-86
2022/01/16 00:09:26;;;;;;;;;;;21.10;44.10;;;;;;681462;28;1244;-90
2022/01/16 00:09:47;;;;;;;;;;;21.10;44.00;;;;;;683861;28;1212;-89
2022/01/16 00:10:08;;;;;;;;;;;21.10;44.00;;;;;;683258;29;1358;-85
2022/01/16 00:10:28;;;;;;;;;;;21.10;44.00;;;;;;684542;28;1266;-79
2022/01/16 00:10:49;;;;;;;;;;;21.10;44.00;;;;;;687818;28;1298;-81
2022/01/16 00:11:11;;;;;;;;;;;21.10;43.90;;;;;;687340;28;1302;-83
2022/01/16 00:11:32;;;;;;;;;;;21.10;44.00;;;;;;687448;28;1121;-88
2022/01/16 00:11:59;;;;;;;;;;;21.10;44.00;;;;;;683527;28;1376;-86
2022/01/16 00:12:22;;;;;;;;;;;21.10;44.00;;;;;;686080;28;1069;-79
2022/01/16 00:12:49;;;;;;;;;;;21.10;44.00;;;;;;685871;28;1353;-81
2022/01/16 00:13:10;;;;;;;;;;;21.20;44.10;;;;;;683632;29;863;-89
2022/01/16 00:13:34;;;;;;;;;;;21.10;44.00;;;;;;683568;29;839;-86
2022/01/16 00:13:56;;;;;;;;;;;21.10;44.00;;;;;;683940;28;1426;-79
2022/01/16 00:14:16;;;;;;;;;;;21.10;44.10;;;;;;686184;28;1192;-91
2022/01/16 00:14:37;;;;;;;;;;;21.10;44.00;;;;;;684911;28;1013;-89
2022/01/16 00:14:58;;;;;;;;;;;21.10;44.00;;;;;;683395;28;1322;-87
2022/01/16 00:15:19;;;;;;;;;;;21.10;43.90;;;;;;686285;28;1262;-90
2022/01/16 00:15:44;;;;;;;;;;;21.10;44.00;;;;;;684636;28;1395;-85
2022/01/16 00:16:24;;;;;;;;;;;21.10;44.00;;;;;;706706;22;1486;-84
2022/01/16 00:16:45;;;;;;;;;;;21.10;44.00;;;;;;693604;28;1330;-89
2022/01/16 00:17:06;;;;;;;;;;;21.10;44.00;;;;;;694153;28;1277;-90
2022/01/16 00:17:34;;;;;;;;;;;21.10;44.00;;;;;;694568;28;1261;-88
2022/01/16 00:18:42;;;;;;;;;;;21.10;44.00;;;;;;693957;28;1241;-87
2022/01/16 00:18:49;;;;;;;;;;;21.10;45.10;;;;;;686092;28;1188;-82
2022/01/16 00:19:09;;;;;;;;;;;21.10;44.00;;;;;;692463;28;1127;-87
2022/01/16 00:19:30;;;;;;;;;;;21.10;44.00;;;;;;694571;28;1259;-86
2022/01/16 00:19:51;;;;;;;;;;;21.10;44.10;;;;;;696787;28;802;-80
2022/01/16 00:20:12;;;;;;;;;;;21.10;44.10;;;;;;694257;28;1217;-90
2022/01/16 00:20:32;;;;;;;;;;;21.10;44.00;;;;;;694324;28;1261;-91
2022/01/16 00:20:53;;;;;;;;;;;21.10;44.10;;;;;;691248;28;1223;-82
2022/01/16 00:21:14;;;;;;;;;;;21.10;44.10;;;;;;691675;28;913;-80
2022/01/16 00:21:38;;;;;;;;;;;21.10;44.10;;;;;;691454;28;1294;-88
2022/01/16 00:21:59;;;;;;;;;;;21.10;44.10;;;;;;690274;28;1352;-88
2022/01/16 00:22:24;;;;;;;;;;;21.10;44.10;;;;;;691732;28;1377;-85
2022/01/16 00:22:46;;;;;;;;;;;21.10;44.10;;;;;;693442;28;1396;-91
2022/01/16 00:23:10;;;;;;;;;;;21.10;44.10;;;;;;694278;28;1341;-83
2022/01/16 00:23:30;;;;;;;;;;;21.10;44.20;;;;;;694403;28;1265;-87
2022/01/16 00:23:51;;;;;;;;;;;21.10;44.30;;;;;;694364;28;1412;-91
2022/01/16 00:24:12;;;;;;;;;;;21.10;44.20;;;;;;691725;28;1328;-88
2022/01/16 00:24:34;;;;;;;;;;;21.10;44.20;;;;;;694172;28;1293;-86
2022/01/16 00:24:55;;;;;;;;;;;21.10;44.30;;;;;;694604;28;1277;-88
2022/01/16 00:25:29;;;;;;;;;;;21.10;45.40;;;;;;696899;28;1226;-84
2022/01/16 00:25:52;;;;;;;;;;;21.10;44.30;;;;;;696318;28;856;-89
2022/01/16 00:26:13;;;;;;;;;;;21.10;44.30;;;;;;697491;28;794;-90
2022/01/16 00:26:37;;;;;;;;;;;21.10;44.40;;;;;;697328;28;806;-76
2022/01/16 00:26:57;;;;;;;;;;;21.10;44.40;;;;;;697686;28;884;-90
2022/01/16 00:27:18;;;;;;;;;;;21.10;44.40;;;;;;694478;28;837;-88
2022/01/16 00:27:39;;;;;;;;;;;21.10;44.30;;;;;;694319;28;720;-93
2022/01/16 00:28:00;;;;;;;;;;;21.10;44.30;;;;;;694539;28;842;-89
2022/01/16 00:28:24;;;;;;;;;;;21.10;44.30;;;;;;694573;28;969;-84
2022/01/16 00:28:45;;;;;;;;;;;21.10;44.30;;;;;;694333;28;854;-79
2022/01/16 00:29:07;;;;;;;;;;;21.00;44.20;;;;;;695372;28;864;-84
2022/01/16 00:29:31;;;;;;;;;;;21.10;44.30;;;;;;697440;28;814;-82
2022/01/16 00:29:51;;;;;;;;;;;21.10;44.30;;;;;;694005;28;1112;-90
2022/01/16 00:30:12;;;;;;;;;;;21.10;44.30;;;;;;691466;28;1204;-92
2022/01/16 00:30:32;;;;;;;;;;;21.10;44.20;;;;;;691566;28;965;-78
2022/01/16 00:30:53;;;;;;;;;;;21.10;44.20;;;;;;691548;28;756;-85
2022/01/16 00:31:14;;;;;;;;;;;21.10;44.20;;;;;;691537;28;874;-82
2022/01/16 00:31:37;;;;;;;;;;;21.10;44.30;;;;;;688686;28;929;-84
2022/01/16 00:31:57;;;;;;;;;;;21.10;44.30;;;;;;692214;28;779;-93
2022/01/16 00:32:18;;;;;;;;;;;21.10;44.30;;;;;;694175;28;794;-87
2022/01/16 00:32:38;;;;;;;;;;;21.10;44.30;;;;;;694333;28;1944;-87
2022/01/16 00:33:00;;;;;;;;;;;21.10;44.20;;;;;;694544;28;822;-94
2022/01/16 00:33:21;;;;;;;;;;;21.10;44.20;;;;;;692405;28;881;-93
2022/01/16 00:33:44;;;;;;;;;;;21.00;44.20;;;;;;694256;28;1032;-93
2022/01/16 00:34:05;;;;;;;;;;;21.10;44.20;;;;;;694305;28;826;-89
2022/01/16 00:34:26;;;;;;;;;;;21.10;44.20;;;;;;695618;28;893;-85
2022/01/16 00:34:46;;;;;;;;;;;21.10;44.20;;;;;;694325;28;818;-91
2022/01/16 00:35:07;;;;;;;;;;;21.10;44.30;;;;;;694992;28;894;-90
2022/01/16 00:35:31;;;;;;;;;;;21.10;44.30;;;;;;697652;28;814;-92
2022/01/16 00:35:52;;;;;;;;;;;21.10;44.30;;;;;;694330;28;1671;-95
2022/01/16 00:36:18;;;;;;;;;;;21.10;44.20;;;;;;694315;28;810;-78
2022/01/16 00:36:39;;;;;;;;;;;21.00;44.10;;;;;;694459;28;889;-87
2022/01/16 00:37:00;;;;;;;;;;;21.10;44.20;;;;;;694819;28;806;-85
2022/01/16 00:37:20;;;;;;;;;;;21.10;44.20;;;;;;695582;28;869;-91
2022/01/16 00:37:41;;;;;;;;;;;21.00;44.20;;;;;;696701;28;818;-91
2022/01/16 00:38:01;;;;;;;;;;;21.00;44.20;;;;;;695089;28;1208;-88
2022/01/16 00:38:22;;;;;;;;;;;21.10;44.30;;;;;;692507;28;1210;-93
2022/01/16 00:38:44;;;;;;;;;;;21.10;44.30;;;;;;692236;28;862;-90
2022/01/16 00:39:06;;;;;;;;;;;21.00;44.20;;;;;;692270;28;834;-96
2022/01/16 00:39:29;;;;;;;;;;;21.10;44.20;;;;;;691818;28;862;-88
2022/01/16 00:39:50;;;;;;;;;;;21.00;44.20;;;;;;692432;28;1200;-88
2022/01/16 00:40:11;;;;;;;;;;;21.10;44.30;;;;;;695620;28;782;-87
2022/01/16 00:40:31;;;;;;;;;;;21.10;44.30;;;;;;697613;28;799;-82
2022/01/16 00:40:52;;;;;;;;;;;21.00;44.20;;;;;;697539;28;1378;-80
2022/01/16 00:41:14;;;;;;;;;;;21.00;44.20;;;;;;694433;28;1209;-80
2022/01/16 00:41:35;;;;;;;;;;;21.10;44.30;;;;;;694394;28;838;-96
2022/01/16 00:42:06;;;;;;;;;;;21.00;44.20;;;;;;696433;28;1287;-84
2022/01/16 00:42:26;;;;;;;;;;;21.00;44.20;;;;;;688622;28;1298;-87
2022/01/16 00:42:47;;;;;;;;;;;21.10;44.20;;;;;;691482;28;906;-90
2022/01/16 00:43:08;;;;;;;;;;;21.00;44.20;;;;;;691717;28;827;-89
2022/01/16 00:43:28;;;;;;;;;;;21.00;44.20;;;;;;691892;28;795;-84
2022/01/16 00:43:49;;;;;;;;;;;21.10;44.30;;;;;;693266;28;778;-86
2022/01/16 00:44:12;;;;;;;;;;;21.00;44.20;;;;;;694242;28;842;-91
2022/01/16 00:44:33;;;;;;;;;;;21.00;44.20;;;;;;697195;28;795;-85
2022/01/16 00:44:54;;;;;;;;;;;21.10;44.30;;;;;;697173;28;1016;-80
2022/01/16 00:45:14;;;;;;;;;;;21.00;44.20;;;;;;697295;28;897;-95
2022/01/16 00:45:37;;;;;;;;;;;21.00;44.20;;;;;;696936;28;846;-86
2022/01/16 00:45:58;;;;;;;;;;;21.00;44.20;;;;;;696987;28;1095;-95
2022/01/16 00:46:19;;;;;;;;;;;21.00;44.20;;;;;;696830;28;1055;-89
2022/01/16 00:46:39;;;;;;;;;;;21.00;44.20;;;;;;693340;28;1118;-94
2022/01/16 00:47:00;;;;;;;;;;;21.00;44.20;;;;;;694264;28;822;-96
2022/01/16 00:47:21;;;;;;;;;;;21.00;44.20;;;;;;694220;28;794;-90
2022/01/16 00:47:41;;;;;;;;;;;21.00;44.20;;;;;;694300;28;897;-78
2022/01/16 00:48:03;;;;;;;;;;;21.00;44.20;;;;;;694446;28;755;-84
2022/01/16 00:48:26;;;;;;;;;;;21.00;44.20;;;;;;694601;28;860;-93
2022/01/16 00:48:46;;;;;;;;;;;21.00;44.20;;;;;;696975;28;846;-82
2022/01/16 00:49:07;;;;;;;;;;;21.00;44.20;;;;;;693814;28;1252;-82
2022/01/16 00:49:28;;;;;;;;;;;21.00;44.20;;;;;;694273;28;877;-92
2022/01/16 00:49:48;;;;;;;;;;;21.00;44.20;;;;;;694181;28;802;-80
2022/01/16 00:50:09;;;;;;;;;;;21.00;44.30;;;;;;694246;28;822;-89
2022/01/16 00:50:30;;;;;;;;;;;21.00;44.30;;;;;;694344;28;822;-88
2022/01/16 00:50:51;;;;;;;;;;;21.00;44.30;;;;;;694723;28;882;-86
2022/01/16 00:51:12;;;;;;;;;;;21.00;44.30;;;;;;697174;28;794;-82
2022/01/16 00:51:33;;;;;;;;;;;21.00;44.30;;;;;;694110;28;1201;-80
2022/01/16 00:51:53;;;;;;;;;;;21.00;44.30;;;;;;694398;28;786;-89
2022/01/16 00:52:17;;;;;;;;;;;21.00;45.40;;;;;;694240;28;877;-84
2022/01/16 00:52:40;;;;;;;;;;;21.00;44.30;;;;;;694029;28;1902;-79
2022/01/16 00:53:01;;;;;;;;;;;21.00;44.30;;;;;;694257;28;810;-87
2022/01/16 00:53:21;;;;;;;;;;;21.00;44.40;;;;;;695442;28;862;-83
2022/01/16 00:53:43;;;;;;;;;;;21.00;44.30;;;;;;693377;28;874;-91
2022/01/16 00:54:05;;;;;;;;;;;21.00;44.40;;;;;;694254;28;759;-86
2022/01/16 00:54:25;;;;;;;;;;;21.00;44.40;;;;;;694310;28;866;-90
2022/01/16 00:54:46;;;;;;;;;;;21.00;44.40;;;;;;694087;28;846;-76
2022/01/16 00:55:07;;;;;;;;;;;21.00;44.40;;;;;;694232;28;809;-93
2022/01/16 00:55:27;;;;;;;;;;;21.00;44.40;;;;;;694992;28;893;-86
2022/01/16 00:55:48;;;;;;;;;;;21.00;44.40;;;;;;693683;28;1255;-89
2022/01/16 00:56:09;;;;;;;;;;;21.00;44.40;;;;;;694163;28;834;-92
2022/01/16 00:56:29;;;;;;;;;;;21.00;44.50;;;;;;694316;28;827;-89
2022/01/16 00:56:50;;;;;;;;;;;21.00;44.50;;;;;;694225;28;838;-94
2022/01/16 00:57:10;;;;;;;;;;;21.00;44.50;;;;;;694467;28;882;-94
2022/01/16 00:57:31;;;;;;;;;;;21.00;44.50;;;;;;691286;28;1482;-85
2022/01/16 00:57:51;;;;;;;;;;;21.00;44.50;;;;;;691021;28;947;-89
2022/01/16 00:58:12;;;;;;;;;;;21.00;44.50;;;;;;691447;28;858;-77
2022/01/16 00:58:33;;;;;;;;;;;21.00;44.50;;;;;;691514;28;830;-82
2022/01/16 00:58:53;;;;;;;;;;;21.00;44.50;;;;;;691264;28;1482;-86
2022/01/16 00:59:14;;;;;;;;;;;21.00;44.50;;;;;;691723;28;871;-95
2022/01/16 00:59:34;;;;;;;;;;;21.00;44.60;;;;;;694369;28;837;-86
2022/01/16 00:59:55;;;;;;;;;;;21.00;44.60;;;;;;694720;28;881;-93
2022/01/16 01:00:16;;;;;;;;;;;21.00;44.60;;;;;;694634;28;850;-89
2022/01/16 01:00:36;;;;;;;;;;;21.00;44.60;;;;;;691768;28;1245;-90
2022/01/16 01:00:57;;;;;;;;;;;21.00;44.60;;;;;;694469;28;846;-82
2022/01/16 01:01:18;;;;;;;;;;;21.00;44.60;;;;;;691450;28;1355;-79
2022/01/16 01:01:38;;;;;;;;;;;21.00;44.60;;;;;;691581;28;830;-91
2022/01/16 01:02:00;;;;;;;;;;;21.00;44.60;;;;;;691592;28;870;-94
2022/01/16 01:02:23;;;;;;;;;;;21.00;44.60;;;;;;692133;28;937;-95
2022/01/16 01:02:43;;;;;;;;;;;21.00;44.70;;;;;;694222;28;815;-90
2022/01/16 01:03:05;;;;;;;;;;;21.00;44.60;;;;;;694939;28;889;-92
2022/01/16 01:03:26;;;;;;;;;;;21.00;44.70;;;;;;697503;28;900;-95
2022/01/16 01:03:47;;;;;;;;;;;21.00;44.60;;;;;;697269;28;795;-94
2022/01/16 01:04:07;;;;;;;;;;;21.00;44.70;;;;;;697161;28;933;-94
2022/01/16 01:04:28;;;;;;;;;;;20.90;44.60;;;;;;694123;28;1177;-94
2022/01/16 01:04:49;;;;;;;;;;;21.00;44.80;;;;;;694197;28;827;-84
2022/01/16 01:05:09;;;;;;;;;;;21.00;44.70;;;;;;694209;28;1119;-86
2022/01/16 01:05:30;;;;;;;;;;;21.00;44.70;;;;;;694342;28;1296;-90
2022/01/16 01:05:51;;;;;;;;;;;21.00;44.80;;;;;;694215;28;865;-89
2022/01/16 01:06:11;;;;;;;;;;;20.90;44.70;;;;;;694072;28;862;-95
2022/01/16 01:06:32;;;;;;;;;;;21.00;44.80;;;;;;694378;28;878;-94
2022/01/16 01:06:53;;;;;;;;;;;21.00;44.80;;;;;;694412;28;853;-95
2022/01/16 01:07:13;;;;;;;;;;;21.00;44.80;;;;;;694641;28;827;-88
2022/01/16 01:07:35;;;;;;;;;;;21.00;44.80;;;;;;697260;28;802;-88
2022/01/16 01:07:55;;;;;;;;;;;21.00;44.80;;;;;;697385;28;810;-89
2022/01/16 01:08:17;;;;;;;;;;;21.00;44.80;;;;;;697395;28;798;-86
2022/01/16 01:08:38;;;;;;;;;;;21.00;44.80;;;;;;697794;28;834;-89
2022/01/16 01:08:58;;;;;;;;;;;21.00;44.70;;;;;;697249;28;810;-90
2022/01/16 01:09:19;;;;;;;;;;;21.00;44.70;;;;;;694727;28;1384;-76
2022/01/16 01:09:40;;;;;;;;;;;21.00;44.60;;;;;;694571;28;795;-85
2022/01/16 01:10:01;;;;;;;;;;;21.00;44.70;;;;;;694383;28;914;-87
2022/01/16 01:10:29;;;;;;;;;;;21.00;44.60;;;;;;694422;28;929;-88
2022/01/16 01:10:53;;;;;;;;;;;21.00;44.60;;;;;;694559;28;842;-91
2022/01/16 01:11:17;;;;;;;;;;;21.00;44.60;;;;;;695263;28;862;-91
2022/01/16 01:11:38;;;;;;;;;;;21.00;44.60;;;;;;695612;28;783;-95
2022/01/16 01:11:59;;;;;;;;;;;21.00;44.60;;;;;;695622;28;601;-91
2022/01/16 01:12:40;;;;;;;;;;;21.00;44.60;;;;;;695480;28;838;-88
2022/01/16 01:13:10;;;;;;;;;;;21.00;44.70;;;;;;695987;28;1237;-91
2022/01/16 01:13:34;;;;;;;;;;;21.00;44.60;;;;;;695608;28;834;-89
2022/01/16 01:14:37;;;;;;;;;;;21.00;44.60;;;;;;692460;28;696;-81
2022/01/16 01:15:08;;;;;;;;;;;21.00;44.60;;;;;;692603;28;878;-94
2022/01/16 01:15:40;;;;;;;;;;;21.00;44.60;;;;;;692339;28;879;-96
2022/01/16 01:16:04;;;;;;;;;;;21.10;44.60;;;;;;689897;28;1048;-83
2022/01/16 01:16:27;;;;;;;;;;;21.10;44.70;;;;;;692748;28;861;-94
2022/01/16 01:16:51;;;;;;;;;;;21.10;44.60;;;;;;692087;28;1150;-90
2022/01/16 01:17:20;;;;;;;;;;;21.10;44.50;;;;;;691617;28;830;-86
2022/01/16 01:17:46;;;;;;;;;;;21.10;44.60;;;;;;691906;28;917;-95
2022/01/16 01:18:08;;;;;;;;;;;21.10;44.60;;;;;;694822;28;937;-91
2022/01/16 01:18:33;;;;;;;;;;;21.10;44.60;;;;;;694817;28;811;-95
2022/01/16 01:18:53;;;;;;;;;;;21.10;44.60;;;;;;694703;28;811;-87
2022/01/16 01:19:14;;;;;;;;;;;21.10;44.60;;;;;;694388;28;945;-92
2022/01/16 01:19:35;;;;;;;;;;;21.10;44.60;;;;;;694413;28;890;-93
2022/01/16 01:19:56;;;;;;;;;;;21.10;44.50;;;;;;694574;28;795;-96
2022/01/16 01:20:18;;;;;;;;;;;21.10;44.60;;;;;;694707;28;976;-87
2022/01/16 01:20:42;;;;;;;;;;;21.10;44.60;;;;;;694470;28;850;-95
2022/01/16 01:21:05;;;;;;;;;;;21.10;44.60;;;;;;694437;28;834;-87
2022/01/16 01:21:28;;;;;;;;;;;21.10;44.50;;;;;;694446;28;846;-91
2022/01/16 01:21:49;;;;;;;;;;;21.10;44.60;;;;;;691048;28;1224;-91
2022/01/16 01:22:09;;;;;;;;;;;21.10;44.50;;;;;;691435;28;1258;-93
2022/01/16 01:22:30;;;;;;;;;;;21.20;44.60;;;;;;692622;28;1271;-88
2022/01/16 01:22:52;;;;;;;;;;;21.10;44.50;;;;;;691517;28;807;-89
2022/01/16 01:23:13;;;;;;;;;;;21.10;44.50;;;;;;691483;28;747;-93
2022/01/16 01:23:34;;;;;;;;;;;21.10;44.50;;;;;;691959;28;831;-92
2022/01/16 01:23:58;;;;;;;;;;;21.20;44.60;;;;;;694489;28;906;-81
2022/01/16 01:24:18;;;;;;;;;;;21.20;44.60;;;;;;694503;28;941;-94
2022/01/16 01:24:39;;;;;;;;;;;21.20;44.60;;;;;;694404;28;803;-93
2022/01/16 01:25:00;;;;;;;;;;;21.20;44.60;;;;;;691620;28;1421;-92
2022/01/16 01:25:22;;;;;;;;;;;21.20;44.50;;;;;;691657;28;799;-93
2022/01/16 01:25:43;;;;;;;;;;;21.20;44.60;;;;;;688743;28;1318;-91
2022/01/16 01:26:03;;;;;;;;;;;21.20;44.50;;;;;;688713;28;807;-90
2022/01/16 01:26:30;;;;;;;;;;;21.20;44.50;;;;;;688893;28;938;-93
2022/01/16 01:27:29;;;;;;;;;;;21.20;44.50;;;;;;690903;28;1339;-94
2022/01/16 01:27:38;;;;;;;;;;;21.20;44.50;;;;;;692173;28;1588;-94
2022/01/16 01:27:58;;;;;;;;;;;21.20;44.50;;;;;;697216;28;890;-92
2022/01/16 01:28:19;;;;;;;;;;;21.20;44.50;;;;;;697042;28;822;-93
2022/01/16 01:28:40;;;;;;;;;;;21.20;44.60;;;;;;694195;28;1401;-91
2022/01/16 01:29:00;;;;;;;;;;;21.20;44.50;;;;;;695471;28;957;-94
2022/01/16 01:29:21;;;;;;;;;;;21.20;44.50;;;;;;695812;28;881;-92
2022/01/16 01:29:48;;;;;;;;;;;21.20;44.50;;;;;;696056;28;771;-95
2022/01/16 01:30:09;;;;;;;;;;;21.20;44.50;;;;;;695692;28;849;-91
2022/01/16 01:30:30;;;;;;;;;;;21.20;44.50;;;;;;697127;28;854;-95
2022/01/16 01:30:51;;;;;;;;;;;21.20;44.40;;;;;;698434;28;839;-89
2022/01/16 01:31:12;;;;;;;;;;;21.20;44.50;;;;;;698610;28;814;-93
2022/01/16 01:31:32;;;;;;;;;;;21.20;44.50;;;;;;698503;28;896;-81
2022/01/16 01:31:53;;;;;;;;;;;21.20;44.50;;;;;;698276;28;905;-92
2022/01/16 01:32:14;;;;;;;;;;;21.20;44.50;;;;;;698220;28;842;-94
2022/01/16 01:32:36;;;;;;;;;;;21.20;44.50;;;;;;698253;28;1966;-85
2022/01/16 01:32:58;;;;;;;;;;;21.20;44.50;;;;;;694952;28;885;-93
2022/01/16 01:33:20;;;;;;;;;;;21.20;44.50;;;;;;695225;28;890;-89
2022/01/16 01:33:41;;;;;;;;;;;21.20;44.40;;;;;;692626;28;1196;-91
2022/01/16 01:34:01;;;;;;;;;;;21.20;44.50;;;;;;692803;28;1277;-86
2022/01/16 01:34:22;;;;;;;;;;;21.20;44.50;;;;;;693025;28;1492;-92
2022/01/16 01:34:43;;;;;;;;;;;21.20;44.50;;;;;;693818;28;949;-81
2022/01/16 01:35:08;;;;;;;;;;;21.20;44.50;;;;;;695812;28;830;-82
2022/01/16 01:35:30;;;;;;;;;;;21.20;44.50;;;;;;695794;28;897;-93
2022/01/16 01:35:50;;;;;;;;;;;21.20;44.50;;;;;;695789;28;882;-91
2022/01/16 01:36:11;;;;;;;;;;;21.20;44.40;;;;;;696747;28;1449;-93
2022/01/16 01:36:31;;;;;;;;;;;21.20;44.50;;;;;;695508;28;1161;-90
2022/01/16 01:36:52;;;;;;;;;;;21.20;44.50;;;;;;695800;28;893;-79
2022/01/16 01:37:13;;;;;;;;;;;21.20;44.40;;;;;;695820;28;795;-85
2022/01/16 01:37:33;;;;;;;;;;;21.20;44.30;;;;;;695577;28;873;-90
2022/01/16 01:37:54;;;;;;;;;;;21.20;44.30;;;;;;695667;28;1087;-93
2022/01/16 01:38:20;;;;;;;;;;;21.20;44.30;;;;;;692490;28;1371;-93
2022/01/16 01:38:40;;;;;;;;;;;21.20;44.30;;;;;;693157;28;1288;-91
2022/01/16 01:39:01;;;;;;;;;;;21.20;44.30;;;;;;692752;28;1004;-87
2022/01/16 01:39:22;;;;;;;;;;;21.20;44.40;;;;;;688759;28;1486;-94
2022/01/16 01:39:42;;;;;;;;;;;21.20;44.40;;;;;;688795;28;839;-81
2022/01/16 01:40:04;;;;;;;;;;;21.20;44.40;;;;;;689802;28;882;-79
2022/01/16 01:40:26;;;;;;;;;;;21.10;44.40;;;;;;692253;28;933;-91
2022/01/16 01:40:48;;;;;;;;;;;21.10;44.40;;;;;;694033;28;898;-87
2022/01/16 01:41:09;;;;;;;;;;;21.10;44.40;;;;;;694085;28;1347;-91
2022/01/16 01:41:30;;;;;;;;;;;21.20;44.60;;;;;;694346;28;775;-91
2022/01/16 01:41:55;;;;;;;;;;;21.10;44.50;;;;;;694139;28;862;-92
2022/01/16 01:42:16;;;;;;;;;;;21.10;44.60;;;;;;694254;28;838;-89
2022/01/16 01:51:02;;;;;;;;;;;21.10;44.60;;;;;;690470;28;875;-90
2022/01/16 01:51:04;;;;;;;;;;;21.00;45.00;;;;;;696978;28;601;-86
2022/01/16 01:51:26;;;;;;;;;;;21.00;45.00;;;;;;696999;28;834;-86
2022/01/16 01:51:47;;;;;;;;;;;21.00;45.00;;;;;;696973;28;814;-79
2022/01/16 01:52:07;;;;;;;;;;;21.00;45.10;;;;;;697003;28;861;-90
2022/01/16 01:52:28;;;;;;;;;;;21.00;45.10;;;;;;697058;28;1906;-90
2022/01/16 01:52:49;;;;;;;;;;;21.00;45.00;;;;;;697055;28;870;-86
2022/01/16 01:53:11;;;;;;;;;;;21.00;45.10;;;;;;697086;28;953;-86
2022/01/16 01:53:32;;;;;;;;;;;21.00;45.10;;;;;;694000;28;1319;-92
2022/01/16 01:53:55;;;;;;;;;;;21.00;45.10;;;;;;694020;28;811;-84
2022/01/16 01:54:16;;;;;;;;;;;21.00;45.10;;;;;;690942;28;870;-85
2022/01/16 01:54:37;;;;;;;;;;;21.00;45.20;;;;;;691410;28;866;-85
2022/01/16 01:54:57;;;;;;;;;;;21.00;45.10;;;;;;688656;28;934;-87
2022/01/16 01:55:18;;;;;;;;;;;21.00;45.10;;;;;;689303;28;822;-89
2022/01/16 01:55:42;;;;;;;;;;;21.00;45.10;;;;;;691325;28;854;-82
2022/01/16 01:56:04;;;;;;;;;;;21.00;45.20;;;;;;693121;28;1242;-83
2022/01/16 01:56:25;;;;;;;;;;;21.00;45.20;;;;;;693893;28;1258;-86
2022/01/16 01:56:46;;;;;;;;;;;21.00;45.10;;;;;;695215;28;830;-92
2022/01/16 01:57:07;;;;;;;;;;;21.00;45.10;;;;;;693974;28;1013;-86
2022/01/16 01:57:27;;;;;;;;;;;21.00;45.10;;;;;;694216;28;802;-91
2022/01/16 01:57:48;;;;;;;;;;;21.00;45.20;;;;;;690513;28;1472;-85
2022/01/16 01:58:09;;;;;;;;;;;21.00;45.10;;;;;;688551;28;826;-92
2022/01/16 01:58:30;;;;;;;;;;;21.00;45.10;;;;;;689037;28;570;-91
2022/01/16 01:58:51;;;;;;;;;;;21.00;45.80;;;;;;688950;28;760;-84
2022/01/16 01:59:12;;;;;;;;;;;21.00;45.10;;;;;;691318;28;887;-92
2022/01/16 01:59:32;;;;;;;;;;;21.00;45.10;;;;;;691943;28;795;-84
2022/01/16 01:59:53;;;;;;;;;;;21.00;45.20;;;;;;694251;28;843;-82
2022/01/16 02:00:20;;;;;;;;;;;21.00;45.10;;;;;;694185;28;898;-81
2022/01/16 02:00:42;;;;;;;;;;;20.90;45.10;;;;;;690836;28;938;-91
2022/01/16 02:01:02;;;;;;;;;;;21.00;45.20;;;;;;692469;28;1370;-80
2022/01/16 02:01:23;;;;;;;;;;;20.90;45.10;;;;;;694139;28;878;-89
2022/01/16 02:01:44;;;;;;;;;;;21.00;45.10;;;;;;694121;28;787;-89
2022/01/16 02:02:04;;;;;;;;;;;21.00;45.20;;;;;;693909;28;902;-84
2022/01/16 02:02:29;;;;;;;;;;;20.90;45.10;;;;;;691920;28;910;-92
2022/01/16 02:03:44;;;;;;;;;;;20.90;45.10;;;;;;691529;28;831;-87
2022/01/16 02:04:04;;;;;;;;;;;20.90;45.10;;;;;;690938;28;1119;-87
2022/01/16 02:04:25;;;;;;;;;;;21.00;45.20;;;;;;693949;28;953;-88
2022/01/16 02:04:45;;;;;;;;;;;21.00;45.20;;;;;;696172;28;905;-89
2022/01/16 02:05:06;;;;;;;;;;;20.90;45.10;;;;;;697002;28;803;-90
2022/01/16 02:05:26;;;;;;;;;;;20.90;45.20;;;;;;697048;28;907;-88
2022/01/16 02:05:47;;;;;;;;;;;21.00;45.20;;;;;;696842;28;1368;-93
2022/01/16 02:06:21;;;;;;;;;;;20.90;45.20;;;;;;696844;28;890;-94
2022/01/16 02:06:42;;;;;;;;;;;20.90;45.20;;;;;;696981;28;830;-79
2022/01/16 02:07:03;;;;;;;;;;;20.90;45.20;;;;;;697046;28;830;-82
2022/01/16 02:07:24;;;;;;;;;;;20.90;45.30;;;;;;697029;28;841;-91
2022/01/16 02:07:44;;;;;;;;;;;20.90;45.20;;;;;;697028;28;803;-93
2022/01/16 02:08:05;;;;;;;;;;;20.90;45.20;;;;;;696888;28;783;-92
2022/01/16 02:08:26;;;;;;;;;;;20.90;45.30;;;;;;696990;28;905;-92
2022/01/16 02:08:48;;;;;;;;;;;20.90;45.30;;;;;;697005;28;901;-91
2022/01/16 02:09:10;;;;;;;;;;;20.90;45.30;;;;;;693969;28;1347;-90
2022/01/16 02:09:33;;;;;;;;;;;20.90;45.20;;;;;;694028;28;893;-91
2022/01/16 02:09:54;;;;;;;;;;;20.90;45.30;;;;;;694144;28;846;-84
2022/01/16 02:10:15;;;;;;;;;;;20.90;45.30;;;;;;694037;28;901;-90
2022/01/16 02:10:36;;;;;;;;;;;20.90;45.30;;;;;;694107;28;838;-92
2022/01/16 02:10:59;;;;;;;;;;;20.90;45.30;;;;;;694092;28;771;-89
2022/01/16 02:11:23;;;;;;;;;;;20.90;45.30;;;;;;695242;28;846;-87
2022/01/16 02:11:47;;;;;;;;;;;20.90;45.30;;;;;;694118;28;1216;-93
2022/01/16 02:12:08;;;;;;;;;;;20.90;45.20;;;;;;693984;28;814;-90
2022/01/16 02:12:30;;;;;;;;;;;20.90;45.30;;;;;;694494;28;1902;-96
2022/01/16 02:12:58;;;;;;;;;;;20.90;45.30;;;;;;694283;28;1238;-90
2022/01/16 02:13:31;;;;;;;;;;;20.90;46.40;;;;;;694317;28;830;-92
2022/01/16 02:14:07;;;;;;;;;;;20.90;45.30;;;;;;696560;28;1617;-95
2022/01/16 02:14:30;;;;;;;;;;;20.90;45.30;;;;;;691602;28;1516;-93
2022/01/16 02:15:00;;;;;;;;;;;20.90;45.40;;;;;;691460;28;514;-86
2022/01/16 02:27:57;;;;;;;;;;;20.90;45.40;;;;;;691213;28;850;-93
2022/01/16 02:28:12;;;;;;;;;;;20.90;45.50;;;;;;694071;28;632;-89
2022/01/16 02:30:47;;;;;;;;;;;20.90;45.60;;;;;;693838;28;1070;-87
2022/01/16 02:31:00;;;;;;;;;;;20.80;45.60;;;;;;693283;28;1242;-84
2022/01/16 02:31:24;;;;;;;;;;;20.80;45.60;;;;;;693837;28;834;-89
2022/01/16 02:32:24;;;;;;;;;;;20.90;45.60;;;;;;691113;28;858;-87
2022/01/16 02:33:24;;;;;;;;;;;20.90;45.60;;;;;;691085;28;1314;-79
2022/01/16 02:34:49;;;;;;;;;;;20.90;45.60;;;;;;691220;28;641;-88
2022/01/16 02:35:10;;;;;;;;;;;20.90;45.60;;;;;;691185;28;807;-87
2022/01/16 02:35:30;;;;;;;;;;;20.80;45.60;;;;;;691736;28;811;-87
2022/01/16 02:35:54;;;;;;;;;;;20.80;45.60;;;;;;693878;28;831;-88
2022/01/16 02:36:31;;;;;;;;;;;20.80;45.50;;;;;;693879;28;830;-84
2022/01/16 02:36:56;;;;;;;;;;;20.80;45.50;;;;;;693854;28;959;-90
2022/01/16 02:37:19;;;;;;;;;;;20.90;45.50;;;;;;693972;28;811;-87
2022/01/16 02:37:39;;;;;;;;;;;20.80;45.50;;;;;;693762;28;861;-83
2022/01/16 02:38:00;;;;;;;;;;;20.90;45.60;;;;;;693978;28;506;-88
2022/01/16 02:38:21;;;;;;;;;;;20.90;45.50;;;;;;693811;28;842;-90
2022/01/16 02:38:42;;;;;;;;;;;20.80;45.50;;;;;;693837;28;815;-79
2022/01/16 02:39:11;;;;;;;;;;;20.80;45.50;;;;;;693898;28;858;-80
2022/01/16 02:39:35;;;;;;;;;;;20.80;45.60;;;;;;693806;28;1418;-83
2022/01/16 02:40:03;;;;;;;;;;;20.80;45.50;;;;;;694133;28;869;-87
2022/01/16 02:40:26;;;;;;;;;;;20.80;45.50;;;;;;694097;28;873;-89
2022/01/16 02:40:48;;;;;;;;;;;20.80;45.50;;;;;;693199;28;1227;-80
2022/01/16 02:41:09;;;;;;;;;;;20.90;45.60;;;;;;688940;28;1308;-90
2022/01/16 02:41:29;;;;;;;;;;;20.80;46.60;;;;;;688573;28;885;-91
2022/01/16 02:41:52;;;;;;;;;;;20.80;45.50;;;;;;688421;28;651;-85
2022/01/16 02:42:13;;;;;;;;;;;20.80;45.50;;;;;;688476;28;503;-87
2022/01/16 02:42:38;;;;;;;;;;;20.80;45.50;;;;;;688494;28;858;-86
2022/01/16 02:42:59;;;;;;;;;;;20.80;45.50;;;;;;689664;28;901;-90
2022/01/16 02:43:28;;;;;;;;;;;20.80;45.50;;;;;;691170;28;959;-85
2022/01/16 02:43:51;;;;;;;;;;;20.80;45.50;;;;;;691072;28;814;-90
2022/01/16 02:44:50;;;;;;;;;;;20.80;45.60;;;;;;691120;28;846;-90